Detall de PIREP

Printer-friendly versionPDF version

[2014/01/04 18:33:00]
Flight IATA:CT1004
Pilot Number:012
Company ICAO:CAT
Aircraft Type:B738/F
PAX:160
Departing Airport: LPPR
Destination Airport: LEBL
Alternate Airport:LEPA
Online: VATSIM
Route:PESUL DCT RIVRO DCT BARDI UM191 DIPOL UN870 PONEN UT600 CASPE
Flight Level:F300
No Slew and time accel
No pause
Crash detect
Detect pilot in Cockpit between each 30 and 45 minutes
18:33 Zero fuel Weight: 126498 Lbs, Fuel Weight: 13714 Lbs
18:33 VATSIM:LPPR 041800Z 28006KT 240V320 9999 FEW015 BKN040 11/04 Q1020
18:33 VATSIM:LEBL 041800Z 26008KT 240V310 6000 RA FEW020 SCT030 14/11 Q1004 NOSIG
18:33 VOICE CATALONIAN / XMAS CHARTER
18:33 Parking Brakes off
18:38 Take-off
18:38 Take off Weight: 139678 Lbs
18:38 Wind: 281º @ 006 Knots Heading: 347º
18:38 POS N41º 14´ 54´´ W008º 40´ 52´´
18:38 Gear Up: 157 Knots
18:38 Flaps:3 at 157 Knots
18:38 Flaps:2 at 176 Knots
18:39 Flaps:1 at 191 Knots
18:39 Flaps:0 at 194 Knots
18:52 TOC
18:52 Fuel Weight: 9968 Lb
18:53 Wind:317º@121 Knots Heading: 096º Ground Speed: 559 Knots Altitude 30042 ft
19:08 Wind:260º@089 Knots Heading: 065º Ground Speed: 540 Knots Altitude 30036 ft
19:23 Wind:247º@077 Knots Heading: 078º Ground Speed: 534 Knots Altitude 29963 ft
19:29 TOD
19:29 Fuel Weight: 5987 Lb
19:38 Wind:259º@046 Knots Heading: 065º Ground Speed: 402 Knots Altitude 10820 ft
19:38 Flaps:1 at 254 Knots
19:44 Flaps:2 at 231 Knots
19:44 Gear Down: 227 Knots
19:44 Flaps:3 at 217 Knots
19:44 Flaps:4 at 182 Knots
19:45 Flaps:5 at 160 Knots
19:45 Flaps:6 at 131 Knots
19:45 Flaps:7 at 134 Knots
19:49 TouchDown:Rate -71 ft/min Speed: 131 Knots
19:49 Flaps:6 at 45 Knots
19:49 Flaps:2 at 39 Knots
19:49 Flaps:0 at 33 Knots
19:49 VATSIM:LEBL 041930Z 28004KT 250V320 9999 DZ FEW020 12/06 Q1005 NOSIG
19:49 Land
19:49 Wind:287º@012 Knots
19:49 Heading: 243º
19:49 Flight Duration: 01:11
19:49 Landing Weight: 131482 Lbs
19:49 POS N41º 18´ 00´´ E002º 05´ 14´´
19:50 Parking brakes on
19:50 Block to Block Duration: 01:17
19:50 Final Fuel: 4867 Lbls
19:50 Spent Fuel: 8847 Lbls
19:50 Flight Length: 541 NM
19:50 TOD Land Length: 110 NM

Exportar CSV

Powered by Drupal - Modified by Danger4k